createdAt,value
2018-06-03T00:01:15.376Z,42.50
2018-06-03T00:03:44.612Z,43.90
2018-06-03T00:06:14.016Z,42.30
2018-06-03T00:08:43.336Z,41.10
2018-06-03T00:11:12.627Z,42.90
2018-06-03T00:13:41.936Z,40.03
2018-06-03T00:16:11.274Z,39.63
2018-06-03T00:18:40.583Z,40.67
2018-06-03T00:21:27.186Z,41.17
2018-06-03T00:23:56.544Z,41.23
2018-06-03T00:26:26.218Z,40.47
2018-06-03T00:28:55.532Z,42.13
2018-06-03T00:31:24.831Z,37.37
2018-06-03T00:33:54.130Z,39.70
2018-06-03T00:36:41.259Z,41.13
2018-06-03T00:39:10.681Z,38.50
2018-06-03T00:41:40.007Z,40.20
2018-06-03T00:44:09.368Z,40.57
2018-06-03T00:46:38.688Z,40.73
2018-06-03T00:49:08.159Z,39.47
2018-06-03T00:51:37.953Z,40.40
2018-06-03T00:54:07.413Z,40.00
2018-06-03T00:56:53.786Z,40.30
2018-06-03T00:59:23.310Z,42.67
2018-06-03T01:01:52.711Z,38.70
2018-06-03T01:04:22.756Z,42.07
2018-06-03T01:06:52.099Z,40.00
2018-06-03T01:09:21.568Z,42.30
2018-06-03T01:11:51.269Z,42.83
2018-06-03T01:14:20.699Z,42.97
2018-06-03T01:16:50.386Z,41.67
2018-06-03T01:19:19.859Z,42.13
2018-06-03T01:21:49.206Z,42.70
2018-06-03T01:24:18.472Z,42.10
2018-06-03T01:26:47.829Z,42.00
2018-06-03T01:29:17.089Z,41.50
2018-06-03T01:31:46.411Z,41.73
2018-06-03T01:34:15.842Z,41.47
2018-06-03T01:36:45.092Z,41.37
2018-06-03T01:39:14.353Z,40.10
2018-06-03T01:41:43.735Z,40.03
2018-06-03T01:44:13.049Z,39.73
2018-06-03T01:46:42.361Z,40.43
2018-06-03T01:49:11.719Z,42.60
2018-06-03T01:51:41.032Z,42.10
2018-06-03T01:54:11.154Z,43.13
2018-06-03T01:56:40.481Z,42.83
2018-06-03T01:59:09.784Z,41.63
2018-06-03T02:01:39.119Z,41.10
2018-06-03T02:04:08.622Z,41.40
2018-06-03T02:06:37.930Z,45.43
2018-06-03T02:09:07.635Z,43.80
2018-06-03T02:11:36.998Z,43.53
2018-06-03T02:14:06.299Z,44.77
2018-06-03T02:16:35.653Z,43.73
2018-06-03T02:19:05.000Z,42.90
2018-06-03T02:21:34.289Z,46.00
2018-06-03T02:24:03.596Z,44.77
2018-06-03T02:26:33.074Z,46.70
2018-06-03T02:29:03.220Z,45.00
2018-06-03T02:31:32.522Z,45.30
2018-06-03T02:34:01.831Z,44.23
2018-06-03T02:36:31.167Z,42.77
2018-06-03T02:39:00.556Z,43.80
2018-06-03T02:41:29.929Z,45.37
2018-06-03T02:43:59.224Z,45.77
2018-06-03T02:46:28.638Z,45.20
2018-06-03T02:48:57.768Z,45.80
2018-06-03T02:51:27.190Z,43.60
2018-06-03T02:53:56.491Z,45.63
2018-06-03T02:56:25.794Z,45.23
2018-06-03T02:58:55.140Z,43.37
2018-06-03T03:01:24.467Z,44.93
2018-06-03T03:03:53.821Z,44.00
2018-06-03T03:06:23.129Z,47.03
2018-06-03T03:08:52.436Z,46.60
2018-06-03T03:11:22.765Z,44.20
2018-06-03T03:13:52.064Z,43.03
2018-06-03T03:16:21.361Z,45.73
2018-06-03T03:18:50.667Z,44.53
2018-06-03T03:21:19.967Z,44.80
2018-06-03T03:23:49.283Z,44.80
2018-06-03T03:26:18.632Z,48.13
2018-06-03T03:28:47.931Z,46.43
2018-06-03T03:31:17.203Z,45.40
2018-06-03T03:33:46.639Z,46.87
2018-06-03T03:36:15.944Z,45.10
2018-06-03T03:38:45.229Z,47.10
2018-06-03T03:41:14.585Z,45.50
2018-06-03T03:43:43.860Z,47.90
2018-06-03T03:46:13.164Z,46.90
2018-06-03T03:48:42.486Z,46.97
2018-06-03T03:51:11.780Z,48.73
2018-06-03T03:53:41.422Z,45.60
2018-06-03T03:56:10.846Z,46.00
2018-06-03T03:58:40.120Z,49.20
2018-06-03T04:01:09.395Z,48.10
2018-06-03T04:03:38.696Z,49.70
2018-06-03T04:06:08.048Z,48.03
2018-06-03T04:08:37.342Z,51.47
2018-06-03T04:11:06.652Z,49.37
2018-06-03T04:13:36.323Z,51.13
2018-06-03T04:16:05.618Z,48.80
2018-06-03T04:18:35.312Z,51.37
2018-06-03T04:21:04.591Z,51.50
2018-06-03T04:23:33.832Z,47.30
2018-06-03T04:26:03.140Z,50.40
2018-06-03T04:28:32.410Z,50.13
2018-06-03T04:31:01.723Z,51.30
2018-06-03T04:33:30.826Z,49.83
2018-06-03T04:36:00.123Z,49.67
2018-06-03T04:38:29.381Z,52.00
2018-06-03T04:40:58.939Z,50.57
2018-06-03T04:43:28.246Z,52.67
2018-06-03T04:45:57.612Z,53.17
2018-06-03T04:48:26.974Z,48.97
2018-06-03T04:50:56.274Z,49.90
2018-06-03T04:53:25.581Z,50.40
2018-06-03T04:55:54.924Z,51.20
2018-06-03T04:58:23.976Z,53.00
2018-06-03T05:00:53.414Z,50.30
2018-06-03T05:03:23.343Z,51.87
2018-06-03T05:05:52.622Z,51.53
2018-06-03T05:08:21.899Z,52.10
2018-06-03T05:10:51.231Z,50.30
2018-06-03T05:13:20.562Z,51.10
2018-06-03T05:15:49.996Z,52.90
2018-06-03T05:18:19.353Z,52.20
2018-06-03T05:20:48.644Z,52.97
2018-06-03T05:23:17.982Z,51.73
2018-06-03T05:25:47.663Z,51.70
2018-06-03T05:28:16.966Z,50.80
2018-06-03T05:30:46.279Z,51.90
2018-06-03T05:33:15.614Z,52.47
2018-06-03T05:35:44.889Z,52.33
2018-06-03T05:38:14.242Z,51.73
2018-06-03T05:40:43.570Z,52.63
2018-06-03T05:43:12.842Z,50.50
2018-06-03T05:45:42.112Z,51.73
2018-06-03T05:48:11.645Z,49.63
2018-06-03T05:50:41.031Z,49.40
2018-06-03T05:53:10.355Z,50.80
2018-06-03T05:55:39.656Z,47.53
2018-06-03T05:58:08.989Z,46.17
2018-06-03T06:00:38.258Z,47.07
2018-06-03T06:03:07.948Z,46.13
2018-06-03T06:05:37.355Z,45.93
2018-06-03T06:08:06.703Z,43.17
2018-06-03T06:10:36.188Z,45.40
2018-06-03T06:13:05.469Z,44.30
2018-06-03T06:15:34.759Z,44.50
2018-06-03T06:18:04.110Z,43.47
2018-06-03T06:20:33.462Z,43.47
2018-06-03T06:23:02.834Z,44.50
2018-06-03T06:25:32.175Z,44.70
2018-06-03T06:28:01.533Z,42.20
2018-06-03T06:30:30.909Z,44.00
2018-06-03T06:33:00.447Z,43.67
2018-06-03T06:35:29.917Z,42.60
2018-06-03T06:37:59.179Z,43.30
2018-06-03T06:40:28.494Z,41.73
2018-06-03T06:42:57.871Z,41.47
2018-06-03T06:45:27.286Z,39.80
2018-06-03T06:47:56.658Z,38.60
2018-06-03T06:50:26.040Z,38.57
2018-06-03T06:52:55.428Z,37.80
2018-06-03T06:55:25.176Z,37.47
2018-06-03T06:57:54.540Z,37.80
2018-06-03T07:00:23.841Z,36.40
2018-06-03T07:02:53.178Z,37.33
2018-06-03T07:05:22.431Z,35.03
2018-06-03T07:07:51.905Z,34.20
2018-06-03T07:10:21.274Z,37.27
2018-06-03T07:12:50.686Z,34.90
2018-06-03T07:15:20.028Z,34.13
2018-06-03T07:17:49.895Z,34.33
2018-06-03T07:20:19.224Z,33.73
2018-06-03T07:22:48.910Z,31.83
2018-06-03T07:25:18.277Z,30.87
2018-06-03T07:27:47.609Z,30.27
2018-06-03T07:30:16.978Z,27.23
2018-06-03T07:32:47.051Z,29.00
2018-06-03T07:35:16.381Z,26.27
2018-06-03T07:37:45.691Z,27.10
2018-06-03T07:40:15.064Z,27.37
2018-06-03T07:42:44.362Z,28.17
2018-06-03T07:45:13.702Z,29.50
2018-06-03T07:47:43.023Z,26.23
2018-06-03T07:50:12.323Z,26.27
2018-06-03T07:52:41.842Z,24.87
2018-06-03T07:55:11.166Z,26.57
2018-06-03T07:57:43.332Z,25.30
2018-06-03T08:00:13.686Z,27.97
2018-06-03T08:02:42.953Z,28.60
2018-06-03T08:05:12.269Z,27.47
2018-06-03T08:07:41.575Z,25.17
2018-06-03T08:10:10.890Z,27.40
2018-06-03T08:12:40.220Z,27.17
2018-06-03T08:15:09.525Z,25.93
2018-06-03T08:17:38.820Z,24.80
2018-06-03T08:20:08.104Z,23.23
2018-06-03T08:22:37.909Z,22.93
2018-06-03T08:25:07.211Z,24.37
2018-06-03T08:27:36.507Z,23.90
2018-06-03T08:30:06.115Z,25.23
2018-06-03T08:32:35.588Z,24.77
2018-06-03T08:35:04.991Z,23.70
2018-06-03T08:37:34.400Z,22.60
2018-06-03T08:40:03.983Z,21.90
2018-06-03T08:42:33.401Z,24.40
2018-06-03T08:45:02.854Z,24.10
2018-06-03T08:47:32.171Z,23.20
2018-06-03T08:50:01.489Z,24.70
2018-06-03T08:52:30.818Z,25.00
2018-06-03T08:55:00.163Z,22.73
2018-06-03T08:57:29.675Z,21.77
2018-06-03T08:59:59.033Z,20.60
2018-06-03T09:02:28.365Z,22.20
2018-06-03T09:04:57.796Z,21.30
2018-06-03T09:07:27.798Z,19.17
2018-06-03T09:09:57.117Z,20.87
2018-06-03T09:12:26.476Z,19.77
2018-06-03T09:14:55.874Z,21.80
2018-06-03T09:17:25.268Z,19.73
2018-06-03T09:19:54.334Z,20.27
2018-06-03T09:22:23.722Z,19.80
2018-06-03T09:24:53.045Z,20.53
2018-06-03T09:27:22.347Z,22.30
2018-06-03T09:29:51.845Z,22.03
2018-06-03T09:32:21.149Z,22.17
2018-06-03T09:34:50.517Z,20.47
2018-06-03T09:37:19.876Z,22.20
2018-06-03T09:39:49.322Z,20.57
2018-06-03T09:42:18.875Z,20.70
2018-06-03T09:44:48.265Z,21.93
2018-06-03T09:47:18.520Z,22.27
2018-06-03T09:49:47.891Z,21.90
2018-06-03T09:52:17.358Z,23.60
2018-06-03T09:54:46.673Z,22.00
2018-06-03T09:57:16.062Z,20.73
2018-06-03T09:59:45.180Z,21.17
2018-06-03T10:02:14.817Z,21.43
2018-06-03T10:04:44.136Z,22.10
2018-06-03T10:07:13.552Z,22.03
2018-06-03T10:09:42.946Z,20.73
2018-06-03T10:12:12.323Z,21.00
2018-06-03T10:14:41.997Z,21.30
2018-06-03T10:17:11.317Z,18.80
2018-06-03T10:19:40.676Z,21.90
2018-06-03T10:22:10.093Z,20.63
2018-06-03T10:24:39.426Z,21.03
2018-06-03T10:27:08.793Z,20.83
2018-06-03T10:29:38.122Z,21.60
2018-06-03T10:32:07.484Z,19.13
2018-06-03T10:34:36.925Z,17.57
2018-06-03T10:37:06.519Z,18.17
2018-06-03T10:39:35.875Z,16.97
2018-06-03T10:42:05.245Z,18.87
2018-06-03T10:44:34.553Z,17.50
2018-06-03T10:47:03.854Z,18.53
2018-06-03T10:49:33.252Z,18.20
2018-06-03T10:52:02.629Z,17.83
2018-06-03T10:54:32.305Z,18.30
2018-06-03T10:57:01.572Z,18.77
2018-06-03T10:59:31.255Z,17.87
2018-06-03T11:02:00.787Z,18.80
2018-06-03T11:04:30.215Z,14.50
2018-06-03T11:06:59.598Z,14.10
2018-06-03T11:09:28.903Z,13.70
2018-06-03T11:11:58.366Z,12.80
2018-06-03T11:14:27.863Z,13.67
2018-06-03T11:16:57.511Z,13.07
2018-06-03T11:19:26.967Z,13.37
2018-06-03T11:21:56.572Z,17.07
2018-06-03T11:24:25.902Z,17.10
2018-06-03T11:26:55.261Z,16.33
2018-06-03T11:29:24.579Z,16.53
2018-06-03T11:31:54.075Z,17.07
2018-06-03T11:34:23.583Z,16.33
2018-06-03T11:36:52.974Z,15.10
2018-06-03T11:39:22.309Z,16.30
2018-06-03T11:41:51.740Z,16.00
2018-06-03T11:44:21.621Z,15.83
2018-06-03T11:46:51.016Z,14.90
2018-06-03T11:49:20.348Z,14.30
2018-06-03T11:51:49.723Z,15.30
2018-06-03T11:54:18.995Z,15.03
2018-06-03T11:57:02.754Z,15.50
2018-06-03T11:59:42.704Z,13.13
2018-06-03T12:02:13.828Z,13.93
2018-06-03T12:04:43.161Z,12.07
2018-06-03T12:07:12.544Z,12.43
2018-06-03T12:09:42.864Z,11.80
2018-06-03T12:12:12.432Z,12.70
2018-06-03T12:14:42.544Z,13.20
2018-06-03T12:17:12.065Z,14.23
2018-06-03T12:19:41.728Z,13.00
2018-06-03T12:22:11.412Z,13.60
2018-06-03T12:24:41.057Z,13.30
2018-06-03T12:27:10.614Z,14.30
2018-06-03T12:29:40.132Z,13.93
2018-06-03T12:32:09.559Z,12.50
2018-06-03T12:34:39.084Z,11.80
2018-06-03T12:37:08.536Z,12.70
2018-06-03T12:39:38.047Z,11.70
2018-06-03T12:42:07.472Z,11.40
2018-06-03T12:44:36.950Z,12.17
2018-06-03T12:47:06.517Z,12.10
2018-06-03T12:49:35.853Z,11.77
2018-06-03T12:52:05.213Z,11.70
2018-06-03T12:54:34.566Z,11.47
2018-06-03T12:57:04.056Z,10.90
2018-06-03T12:59:33.380Z,10.93
2018-06-03T13:02:02.743Z,10.33
2018-06-03T13:04:32.119Z,9.60
2018-06-03T13:07:01.871Z,10.43
2018-06-03T13:09:31.272Z,11.00
2018-06-03T13:12:01.306Z,10.07
2018-06-03T13:14:30.920Z,11.80
2018-06-03T13:17:00.561Z,11.53
2018-06-03T13:19:29.917Z,11.50
2018-06-03T13:21:59.276Z,10.43
2018-06-03T13:24:28.583Z,10.97
2018-06-03T13:26:57.975Z,11.07
2018-06-03T13:29:27.384Z,11.40
2018-06-03T13:31:56.865Z,11.60
2018-06-03T13:34:26.404Z,11.80
2018-06-03T13:36:55.769Z,11.97
2018-06-03T13:39:25.138Z,12.50
2018-06-03T13:41:54.505Z,12.30
2018-06-03T13:44:23.887Z,12.00
2018-06-03T13:46:53.270Z,12.57
2018-06-03T13:49:22.562Z,11.23
2018-06-03T13:51:51.846Z,11.00
2018-06-03T13:54:21.425Z,10.80
2018-06-03T13:56:50.856Z,11.20
2018-06-03T13:59:20.381Z,10.70
2018-06-03T14:01:49.926Z,11.00
2018-06-03T14:04:19.266Z,9.20
2018-06-03T14:06:48.569Z,9.27
2018-06-03T14:09:17.972Z,9.33
2018-06-03T14:11:47.486Z,10.87
2018-06-03T14:14:16.895Z,12.03
2018-06-03T14:16:46.435Z,11.10
2018-06-03T14:19:16.351Z,9.67
2018-06-03T14:21:45.750Z,11.70
2018-06-03T14:24:15.126Z,11.50
2018-06-03T14:26:44.464Z,11.07
2018-06-03T14:29:13.847Z,10.60
2018-06-03T14:31:43.311Z,11.30
2018-06-03T14:34:12.632Z,10.63
2018-06-03T14:36:41.988Z,10.80
2018-06-03T14:39:11.507Z,11.70
2018-06-03T14:41:40.897Z,9.73
2018-06-03T14:44:10.083Z,11.73
2018-06-03T14:46:39.674Z,11.07
2018-06-03T14:49:09.200Z,12.50
2018-06-03T14:51:38.659Z,12.37
2018-06-03T14:54:08.111Z,12.47
2018-06-03T14:56:37.617Z,12.60
2018-06-03T14:59:07.003Z,12.60
2018-06-03T15:01:36.546Z,13.37
2018-06-03T15:04:05.959Z,14.07
2018-06-03T15:06:35.288Z,15.77
2018-06-03T15:09:07.794Z,13.80
2018-06-03T15:11:37.922Z,15.17
2018-06-03T15:14:07.664Z,15.20
2018-06-03T15:16:37.568Z,15.67
2018-06-03T15:19:07.006Z,16.67
2018-06-03T15:21:36.596Z,14.67
2018-06-03T15:24:07.402Z,18.30
2018-06-03T15:26:37.118Z,18.30
2018-06-03T15:29:07.835Z,19.40
2018-06-03T15:31:37.416Z,18.17
2018-06-03T15:34:07.677Z,17.97
2018-06-03T15:36:37.255Z,17.67
2018-06-03T15:39:09.394Z,17.10
2018-06-03T15:41:39.142Z,16.60
2018-06-03T15:44:09.383Z,16.57
2018-06-03T15:46:39.802Z,16.00
2018-06-03T15:49:09.521Z,14.33
2018-06-03T15:51:39.835Z,12.60
2018-06-03T15:54:09.427Z,12.13
2018-06-03T15:56:39.363Z,11.77
2018-06-03T15:59:09.076Z,11.67
2018-06-03T16:01:38.890Z,12.40
2018-06-03T16:04:08.296Z,12.53
2018-06-03T16:06:38.443Z,12.63
2018-06-03T16:09:08.631Z,12.50
2018-06-03T16:11:38.353Z,14.20
2018-06-03T16:14:07.823Z,12.47
2018-06-03T16:16:37.232Z,13.20
2018-06-03T16:19:06.751Z,12.80
2018-06-03T16:21:36.338Z,14.67
2018-06-03T16:24:06.767Z,14.50
2018-06-03T16:26:36.300Z,15.40
2018-06-03T16:29:06.335Z,15.60
2018-06-03T16:31:35.989Z,14.60
2018-06-03T16:34:05.464Z,16.50
2018-06-03T16:36:34.923Z,17.40
2018-06-03T16:39:04.699Z,18.60
2018-06-03T16:41:34.170Z,18.60
2018-06-03T16:44:03.404Z,18.00
2018-06-03T16:46:33.138Z,17.43
2018-06-03T16:49:02.540Z,17.13
2018-06-03T16:51:31.978Z,16.90
2018-06-03T16:54:01.148Z,18.90
2018-06-03T16:56:30.488Z,19.00
2018-06-03T16:58:59.841Z,18.03
2018-06-03T17:01:29.247Z,22.33
2018-06-03T17:03:59.047Z,18.60
2018-06-03T17:06:28.435Z,20.50
2018-06-03T17:08:58.239Z,23.17
2018-06-03T17:11:27.608Z,21.43
2018-06-03T17:13:57.098Z,22.90
2018-06-03T17:16:26.531Z,20.70
2018-06-03T17:18:55.905Z,21.70
2018-06-03T17:21:25.247Z,20.27
2018-06-03T17:23:54.367Z,20.80
2018-06-03T17:26:23.702Z,21.07
2018-06-03T17:28:53.038Z,20.07
2018-06-03T17:31:22.614Z,22.00
2018-06-03T17:33:51.951Z,23.37
2018-06-03T17:36:24.194Z,21.50
2018-06-03T17:38:53.791Z,20.97
2018-06-03T17:41:23.232Z,21.43
2018-06-03T17:43:52.733Z,21.63
2018-06-03T17:46:22.085Z,19.70
2018-06-03T17:48:51.599Z,18.70
2018-06-03T17:51:21.005Z,19.47
2018-06-03T17:53:50.812Z,21.20
2018-06-03T17:56:20.189Z,18.20
2018-06-03T17:58:49.570Z,20.23
2018-06-03T18:01:18.989Z,20.20
2018-06-03T18:03:48.356Z,19.20
2018-06-03T18:06:17.763Z,21.37
2018-06-03T18:08:47.166Z,19.43
2018-06-03T18:11:17.010Z,21.23
2018-06-03T18:13:46.396Z,21.10
2018-06-03T18:16:16.299Z,20.23
2018-06-03T18:18:45.712Z,20.97
2018-06-03T18:21:15.066Z,20.20
2018-06-03T18:23:44.613Z,19.87
2018-06-03T18:26:14.043Z,19.00
2018-06-03T18:28:43.437Z,19.80
2018-06-03T18:31:12.990Z,19.60
2018-06-03T18:33:42.348Z,20.43
2018-06-03T18:36:11.871Z,19.70
2018-06-03T18:38:41.381Z,19.63
2018-06-03T18:41:10.766Z,18.60
2018-06-03T18:43:40.161Z,19.20
2018-06-03T18:46:09.590Z,19.20
2018-06-03T18:48:39.096Z,19.50
2018-06-03T18:51:08.508Z,18.30
2018-06-03T18:53:37.940Z,19.23
2018-06-03T18:56:07.318Z,19.63
2018-06-03T18:58:36.681Z,18.13
2018-06-03T19:01:06.179Z,19.47
2018-06-03T19:03:35.565Z,19.17
2018-06-03T19:06:04.997Z,18.70
2018-06-03T19:08:34.539Z,18.97
2018-06-03T19:11:03.983Z,19.30
2018-06-03T19:13:33.425Z,18.40
2018-06-03T19:16:02.872Z,19.60
2018-06-03T19:18:32.362Z,19.37
2018-06-03T19:21:01.735Z,20.80
2018-06-03T19:23:31.471Z,19.17
2018-06-03T19:26:00.951Z,19.90
2018-06-03T19:28:30.299Z,18.73
2018-06-03T19:30:59.689Z,23.97
2018-06-03T19:33:29.165Z,22.33
2018-06-03T19:35:58.597Z,22.50
2018-06-03T19:38:28.259Z,20.93
2018-06-03T19:40:57.714Z,20.67
2018-06-03T19:43:27.053Z,19.60
2018-06-03T19:45:56.720Z,21.20
2018-06-03T19:48:26.386Z,21.80
2018-06-03T19:50:55.927Z,20.30
2018-06-03T19:53:25.295Z,20.80
2018-06-03T19:55:54.540Z,22.37
2018-06-03T19:58:23.931Z,21.67
2018-06-03T20:00:53.288Z,22.13
2018-06-03T20:03:22.626Z,22.50
2018-06-03T20:05:52.035Z,21.93
2018-06-03T20:08:22.419Z,22.63
2018-06-03T20:10:51.851Z,20.83
2018-06-03T20:13:21.192Z,22.93
2018-06-03T20:15:50.575Z,23.57
2018-06-03T20:18:19.902Z,22.80
2018-06-03T20:20:49.335Z,21.67
2018-06-03T20:23:18.792Z,21.30
2018-06-03T20:25:48.264Z,22.47
2018-06-03T20:28:17.725Z,22.03
2018-06-03T20:30:47.502Z,21.60
2018-06-03T20:33:16.997Z,21.50
2018-06-03T20:35:46.382Z,20.87
2018-06-03T20:38:15.767Z,21.60
2018-06-03T20:40:45.186Z,22.90
2018-06-03T20:43:14.687Z,23.60
2018-06-03T20:45:44.052Z,24.07
2018-06-03T20:48:13.385Z,24.87
2018-06-03T20:50:42.843Z,23.60
2018-06-03T20:53:13.236Z,24.37
2018-06-03T20:55:42.613Z,24.03
2018-06-03T20:58:11.975Z,22.30
2018-06-03T21:00:41.493Z,24.20
2018-06-03T21:03:10.841Z,24.67
2018-06-03T21:05:40.210Z,22.93
2018-06-03T21:08:09.591Z,23.53
2018-06-03T21:10:38.928Z,22.93
2018-06-03T21:13:08.261Z,24.87
2018-06-03T21:15:37.688Z,24.60
2018-06-03T21:18:07.028Z,24.13
2018-06-03T21:20:36.326Z,25.17
2018-06-03T21:23:05.852Z,23.20
2018-06-03T21:25:35.326Z,23.43
2018-06-03T21:28:04.661Z,23.57
2018-06-03T21:30:34.015Z,25.27
2018-06-03T21:33:03.327Z,23.13
2018-06-03T21:35:32.951Z,23.03
2018-06-03T21:38:02.349Z,25.13
2018-06-03T21:40:31.826Z,24.40
2018-06-03T21:43:01.290Z,24.00
2018-06-03T21:45:30.706Z,24.90
2018-06-03T21:48:00.127Z,24.37
2018-06-03T21:50:29.444Z,24.33
2018-06-03T21:52:59.106Z,25.33
2018-06-03T21:55:29.413Z,26.20
2018-06-03T21:57:58.742Z,23.33
2018-06-03T22:00:28.554Z,23.97
2018-06-03T22:02:58.008Z,23.67
2018-06-03T22:05:27.574Z,24.67
2018-06-03T22:07:57.087Z,24.83
2018-06-03T22:10:27.436Z,23.37
2018-06-03T22:12:56.788Z,22.27
2018-06-03T22:15:26.124Z,23.23
2018-06-03T22:17:55.571Z,23.53
2018-06-03T22:20:24.899Z,22.90
2018-06-03T22:22:54.586Z,23.87
2018-06-03T22:25:23.872Z,24.40
2018-06-03T22:27:53.267Z,21.33
2018-06-03T22:30:22.879Z,21.17
2018-06-03T22:32:52.282Z,20.70
2018-06-03T22:35:21.808Z,20.97
2018-06-03T22:37:51.295Z,21.20
2018-06-03T22:40:20.742Z,19.60
2018-06-03T22:42:50.077Z,20.00
2018-06-03T22:45:20.138Z,19.57
2018-06-03T22:47:49.458Z,21.07
2018-06-03T22:50:18.575Z,19.90
2018-06-03T22:52:48.088Z,21.03
2018-06-03T22:55:17.638Z,20.40
2018-06-03T22:57:51.965Z,20.93
2018-06-03T23:00:29.571Z,19.33
2018-06-03T23:03:04.623Z,20.40
2018-06-03T23:05:34.323Z,20.40
2018-06-03T23:08:03.649Z,21.10
2018-06-03T23:10:33.402Z,21.70
2018-06-03T23:13:02.930Z,18.63
2018-06-03T23:15:32.646Z,20.13
2018-06-03T23:18:02.453Z,19.30
2018-06-03T23:20:31.858Z,20.83
2018-06-03T23:23:01.324Z,20.23
2018-06-03T23:25:31.497Z,21.80
2018-06-03T23:28:00.836Z,23.33
2018-06-03T23:30:30.145Z,21.20
2018-06-03T23:32:59.498Z,19.37
2018-06-03T23:35:28.799Z,21.73
2018-06-03T23:37:58.065Z,23.77
2018-06-03T23:40:27.403Z,21.97
2018-06-03T23:42:56.722Z,21.87
2018-06-03T23:45:25.997Z,22.27
2018-06-03T23:47:56.129Z,22.77
2018-06-03T23:50:25.479Z,22.50
2018-06-03T23:52:54.739Z,20.53
2018-06-03T23:55:24.022Z,20.53
2018-06-03T23:57:53.334Z,21.00
